Terminal Aerodrome Forecast
Issued by NWS Northern Indiana

Home | Current Version | Previous Version | Text Only | Print | Product List | Glossary On
Versions: 1 2 3 4 5 6 7 8 9 10 11 12 13
000
FTUS43 KIWX 201700
TAFFWA
TAF
KFWA 201720Z 2018/2118 22005KT 3SM BR OVC035
     FM202200 20003KT 6SM BR BKN030 OVC070
     FM211000 18004KT 3SM BR OVC010=

USA.gov is the U.S. government's official web portal to all federal, state and local government web resources and services.